TAF and METAR

Decoding for American and Canadian METARs and TAFs is not fully implemented.

Could not understand the following METAR

CYRB 251300Z 28003KT 260V330 15SM -SN OVC010 M06/M08 A2970 RMK SC8 SLP065

TAF for Resolute Bay Airport

TAF CYRB 251142Z 2512/2612 33005KT P6SM -SN SCT005 OVC010 TEMPO 2512/2520 3SM -SN OVC005 FM252000 27010KT 5SM -SN BKN007 OVC020 TEMPO 2520/2609 P6SM -SN SCT007 BKN020 FM260900 36010KT P6SM BKN025 RMK NXT FCST BY 251800Z
Report created 25. sep 13:42

between 25. sep 14:00 - 26. sep 14:00

wind 5 knots from NNW (330°)